sensor_id;sensor_type;location;lat;lon;timestamp;temperature;humidity
22379;DHT22;11357;49.990;7.370;2022-12-24T00:01:22;12.60;90.30
22379;DHT22;11357;49.990;7.370;2022-12-24T00:03:48;12.50;90.30
22379;DHT22;11357;49.990;7.370;2022-12-24T00:06:20;12.50;90.40
22379;DHT22;11357;49.990;7.370;2022-12-24T00:08:47;12.50;90.40
22379;DHT22;11357;49.990;7.370;2022-12-24T00:11:12;12.50;90.40
22379;DHT22;11357;49.990;7.370;2022-12-24T00:13:38;12.50;90.50
22379;DHT22;11357;49.990;7.370;2022-12-24T00:16:04;12.60;90.60
22379;DHT22;11357;49.990;7.370;2022-12-24T00:18:30;12.60;90.60
22379;DHT22;11357;49.990;7.370;2022-12-24T00:20:56;12.60;90.60
22379;DHT22;11357;49.990;7.370;2022-12-24T00:23:22;12.60;90.60
22379;DHT22;11357;49.990;7.370;2022-12-24T00:25:48;12.60;90.60
22379;DHT22;11357;49.990;7.370;2022-12-24T00:28:14;12.60;90.60
22379;DHT22;11357;49.990;7.370;2022-12-24T00:30:41;12.60;90.70
22379;DHT22;11357;49.990;7.370;2022-12-24T00:33:07;12.60;91.00
22379;DHT22;11357;49.990;7.370;2022-12-24T00:35:34;12.60;90.70
22379;DHT22;11357;49.990;7.370;2022-12-24T00:38:00;12.60;90.70
22379;DHT22;11357;49.990;7.370;2022-12-24T00:40:28;12.60;90.70
22379;DHT22;11357;49.990;7.370;2022-12-24T00:42:54;12.60;90.80
22379;DHT22;11357;49.990;7.370;2022-12-24T00:45:20;12.60;90.80
22379;DHT22;11357;49.990;7.370;2022-12-24T00:47:46;12.60;90.70
22379;DHT22;11357;49.990;7.370;2022-12-24T00:50:12;12.60;90.80
22379;DHT22;11357;49.990;7.370;2022-12-24T00:52:37;12.60;90.80
22379;DHT22;11357;49.990;7.370;2022-12-24T00:55:03;12.60;90.80
22379;DHT22;11357;49.990;7.370;2022-12-24T00:57:29;12.60;90.80
22379;DHT22;11357;49.990;7.370;2022-12-24T00:59:55;12.60;90.80
22379;DHT22;11357;49.990;7.370;2022-12-24T01:02:21;12.50;90.80
22379;DHT22;11357;49.990;7.370;2022-12-24T01:04:47;12.50;90.80
22379;DHT22;11357;49.990;7.370;2022-12-24T01:07:31;12.50;90.80
22379;DHT22;11357;49.990;7.370;2022-12-24T01:09:56;12.50;90.80
22379;DHT22;11357;49.990;7.370;2022-12-24T01:12:22;12.50;90.90
22379;DHT22;11357;49.990;7.370;2022-12-24T01:14:48;12.50;90.90
22379;DHT22;11357;49.990;7.370;2022-12-24T01:17:14;12.50;90.90
22379;DHT22;11357;49.990;7.370;2022-12-24T01:19:39;12.50;90.90
22379;DHT22;11357;49.990;7.370;2022-12-24T01:22:05;12.50;90.90
22379;DHT22;11357;49.990;7.370;2022-12-24T01:24:31;12.50;90.90
22379;DHT22;11357;49.990;7.370;2022-12-24T01:26:56;12.50;90.90
22379;DHT22;11357;49.990;7.370;2022-12-24T01:29:22;12.50;91.00
22379;DHT22;11357;49.990;7.370;2022-12-24T01:31:48;12.50;90.90
22379;DHT22;11357;49.990;7.370;2022-12-24T01:34:14;12.40;91.00
22379;DHT22;11357;49.990;7.370;2022-12-24T01:36:39;12.40;91.10
22379;DHT22;11357;49.990;7.370;2022-12-24T01:39:05;12.40;91.20
22379;DHT22;11357;49.990;7.370;2022-12-24T01:41:31;12.40;91.20
22379;DHT22;11357;49.990;7.370;2022-12-24T01:44:21;12.30;91.30
22379;DHT22;11357;49.990;7.370;2022-12-24T01:46:50;12.30;91.50
22379;DHT22;11357;49.990;7.370;2022-12-24T01:49:16;12.30;91.50
22379;DHT22;11357;49.990;7.370;2022-12-24T01:51:50;12.30;91.50
22379;DHT22;11357;49.990;7.370;2022-12-24T01:54:25;12.30;91.60
22379;DHT22;11357;49.990;7.370;2022-12-24T01:57:04;12.20;91.60
22379;DHT22;11357;49.990;7.370;2022-12-24T01:59:31;12.20;91.80
22379;DHT22;11357;49.990;7.370;2022-12-24T02:01:58;12.20;91.70
22379;DHT22;11357;49.990;7.370;2022-12-24T02:04:32;12.20;91.80
22379;DHT22;11357;49.990;7.370;2022-12-24T02:06:59;12.20;91.90
22379;DHT22;11357;49.990;7.370;2022-12-24T02:09:26;12.10;91.90
22379;DHT22;11357;49.990;7.370;2022-12-24T02:11:52;12.10;92.00
22379;DHT22;11357;49.990;7.370;2022-12-24T02:14:18;12.10;92.00
22379;DHT22;11357;49.990;7.370;2022-12-24T02:22:39;12.00;92.20
22379;DHT22;11357;49.990;7.370;2022-12-24T02:30:21;12.00;92.20
22379;DHT22;11357;49.990;7.370;2022-12-24T02:41:15;12.00;92.40
22379;DHT22;11357;49.990;7.370;2022-12-24T02:43:45;12.00;92.50
22379;DHT22;11357;49.990;7.370;2022-12-24T02:46:18;12.10;92.60
22379;DHT22;11357;49.990;7.370;2022-12-24T02:48:46;12.10;92.60
22379;DHT22;11357;49.990;7.370;2022-12-24T02:51:13;12.10;92.60
22379;DHT22;11357;49.990;7.370;2022-12-24T02:53:39;12.10;92.60
22379;DHT22;11357;49.990;7.370;2022-12-24T03:04:12;12.20;92.70
22379;DHT22;11357;49.990;7.370;2022-12-24T03:06:49;12.20;92.70
22379;DHT22;11357;49.990;7.370;2022-12-24T03:09:25;12.20;92.60
22379;DHT22;11357;49.990;7.370;2022-12-24T03:12:06;12.20;92.60
22379;DHT22;11357;49.990;7.370;2022-12-24T03:14:35;12.20;92.70
22379;DHT22;11357;49.990;7.370;2022-12-24T03:17:02;12.20;92.60
22379;DHT22;11357;49.990;7.370;2022-12-24T03:19:29;12.20;92.50
22379;DHT22;11357;49.990;7.370;2022-12-24T03:21:57;12.20;92.50
22379;DHT22;11357;49.990;7.370;2022-12-24T03:24:24;12.20;92.50
22379;DHT22;11357;49.990;7.370;2022-12-24T03:26:50;12.20;92.50
22379;DHT22;11357;49.990;7.370;2022-12-24T03:29:17;12.20;92.50
22379;DHT22;11357;49.990;7.370;2022-12-24T03:31:48;12.20;92.50
22379;DHT22;11357;49.990;7.370;2022-12-24T03:34:15;12.20;92.50
22379;DHT22;11357;49.990;7.370;2022-12-24T03:36:42;12.10;92.40
22379;DHT22;11357;49.990;7.370;2022-12-24T03:39:08;12.20;92.50
22379;DHT22;11357;49.990;7.370;2022-12-24T03:41:34;12.10;92.40
22379;DHT22;11357;49.990;7.370;2022-12-24T03:44:00;12.10;92.40
22379;DHT22;11357;49.990;7.370;2022-12-24T03:46:26;12.10;92.40
22379;DHT22;11357;49.990;7.370;2022-12-24T03:48:52;12.10;92.50
22379;DHT22;11357;49.990;7.370;2022-12-24T03:51:20;12.10;92.60
22379;DHT22;11357;49.990;7.370;2022-12-24T03:53:47;12.00;92.50
22379;DHT22;11357;49.990;7.370;2022-12-24T03:56:12;12.00;92.60
22379;DHT22;11357;49.990;7.370;2022-12-24T03:58:38;12.00;92.70
22379;DHT22;11357;49.990;7.370;2022-12-24T04:01:04;12.00;92.70
22379;DHT22;11357;49.990;7.370;2022-12-24T04:03:30;12.00;92.80
22379;DHT22;11357;49.990;7.370;2022-12-24T04:06:11;12.00;92.80
22379;DHT22;11357;49.990;7.370;2022-12-24T04:08:38;11.90;93.00
22379;DHT22;11357;49.990;7.370;2022-12-24T04:11:05;11.90;93.00
22379;DHT22;11357;49.990;7.370;2022-12-24T04:13:31;12.00;93.00
22379;DHT22;11357;49.990;7.370;2022-12-24T04:16:08;12.00;92.90
22379;DHT22;11357;49.990;7.370;2022-12-24T04:18:34;12.00;93.00
22379;DHT22;11357;49.990;7.370;2022-12-24T04:21:01;12.00;92.90
22379;DHT22;11357;49.990;7.370;2022-12-24T04:23:29;12.00;92.90
22379;DHT22;11357;49.990;7.370;2022-12-24T04:25:57;12.00;92.80
22379;DHT22;11357;49.990;7.370;2022-12-24T04:28:23;12.00;92.80
22379;DHT22;11357;49.990;7.370;2022-12-24T04:30:48;12.10;92.70
22379;DHT22;11357;49.990;7.370;2022-12-24T04:33:14;12.00;92.70
22379;DHT22;11357;49.990;7.370;2022-12-24T04:35:40;12.00;92.70
22379;DHT22;11357;49.990;7.370;2022-12-24T04:38:07;12.00;92.70
22379;DHT22;11357;49.990;7.370;2022-12-24T04:40:33;12.10;93.00
22379;DHT22;11357;49.990;7.370;2022-12-24T04:42:59;12.00;92.70
22379;DHT22;11357;49.990;7.370;2022-12-24T04:45:24;12.00;92.70
22379;DHT22;11357;49.990;7.370;2022-12-24T04:47:50;12.00;92.80
22379;DHT22;11357;49.990;7.370;2022-12-24T04:50:16;12.00;92.80
22379;DHT22;11357;49.990;7.370;2022-12-24T04:52:42;12.00;92.80
22379;DHT22;11357;49.990;7.370;2022-12-24T04:55:08;12.10;92.80
22379;DHT22;11357;49.990;7.370;2022-12-24T04:57:34;12.10;92.80
22379;DHT22;11357;49.990;7.370;2022-12-24T05:00:01;12.10;92.80
22379;DHT22;11357;49.990;7.370;2022-12-24T05:02:26;12.10;92.80
22379;DHT22;11357;49.990;7.370;2022-12-24T05:04:52;12.10;92.80
22379;DHT22;11357;49.990;7.370;2022-12-24T05:07:18;12.20;92.80
22379;DHT22;11357;49.990;7.370;2022-12-24T05:09:44;12.20;92.70
22379;DHT22;11357;49.990;7.370;2022-12-24T05:12:09;12.20;92.70
22379;DHT22;11357;49.990;7.370;2022-12-24T05:14:35;12.20;92.70
22379;DHT22;11357;49.990;7.370;2022-12-24T05:17:01;12.20;92.70
22379;DHT22;11357;49.990;7.370;2022-12-24T05:19:26;12.20;92.60
22379;DHT22;11357;49.990;7.370;2022-12-24T05:21:52;12.20;92.70
22379;DHT22;11357;49.990;7.370;2022-12-24T05:24:41;12.20;92.70
22379;DHT22;11357;49.990;7.370;2022-12-24T05:27:25;12.20;92.70
22379;DHT22;11357;49.990;7.370;2022-12-24T05:29:51;12.20;92.70
22379;DHT22;11357;49.990;7.370;2022-12-24T05:32:17;12.20;92.70
22379;DHT22;11357;49.990;7.370;2022-12-24T05:34:42;12.20;92.60
22379;DHT22;11357;49.990;7.370;2022-12-24T05:37:08;12.20;92.60
22379;DHT22;11357;49.990;7.370;2022-12-24T05:39:34;12.30;92.60
22379;DHT22;11357;49.990;7.370;2022-12-24T05:41:59;12.30;92.60
22379;DHT22;11357;49.990;7.370;2022-12-24T05:44:25;12.30;92.60
22379;DHT22;11357;49.990;7.370;2022-12-24T05:46:51;12.30;92.50
22379;DHT22;11357;49.990;7.370;2022-12-24T05:49:16;12.30;92.50
22379;DHT22;11357;49.990;7.370;2022-12-24T05:51:42;12.30;92.50
22379;DHT22;11357;49.990;7.370;2022-12-24T05:54:08;12.30;92.50
22379;DHT22;11357;49.990;7.370;2022-12-24T05:56:34;12.30;92.50
22379;DHT22;11357;49.990;7.370;2022-12-24T05:59:03;12.30;92.40
22379;DHT22;11357;49.990;7.370;2022-12-24T06:01:28;12.30;92.40
22379;DHT22;11357;49.990;7.370;2022-12-24T06:03:56;12.30;92.70
22379;DHT22;11357;49.990;7.370;2022-12-24T06:06:24;12.30;92.40
22379;DHT22;11357;49.990;7.370;2022-12-24T06:08:51;12.30;92.40
22379;DHT22;11357;49.990;7.370;2022-12-24T06:11:20;12.30;92.30
22379;DHT22;11357;49.990;7.370;2022-12-24T06:13:46;12.40;92.30
22379;DHT22;11357;49.990;7.370;2022-12-24T06:16:14;12.40;92.30
22379;DHT22;11357;49.990;7.370;2022-12-24T06:18:40;12.40;92.30
22379;DHT22;11357;49.990;7.370;2022-12-24T06:21:07;12.40;92.30
22379;DHT22;11357;49.990;7.370;2022-12-24T06:23:35;12.40;92.30
22379;DHT22;11357;49.990;7.370;2022-12-24T06:26:02;12.40;92.30
22379;DHT22;11357;49.990;7.370;2022-12-24T06:28:30;12.40;92.40
22379;DHT22;11357;49.990;7.370;2022-12-24T06:30:57;12.40;92.30
22379;DHT22;11357;49.990;7.370;2022-12-24T06:33:23;12.40;92.30
22379;DHT22;11357;49.990;7.370;2022-12-24T06:35:49;12.40;92.30
22379;DHT22;11357;49.990;7.370;2022-12-24T06:38:15;12.40;92.30
22379;DHT22;11357;49.990;7.370;2022-12-24T06:40:42;12.40;92.30
22379;DHT22;11357;49.990;7.370;2022-12-24T06:43:09;12.40;92.40
22379;DHT22;11357;49.990;7.370;2022-12-24T06:45:34;12.30;92.40
22379;DHT22;11357;49.990;7.370;2022-12-24T06:48:00;12.40;92.40
22379;DHT22;11357;49.990;7.370;2022-12-24T06:50:26;12.40;92.50
22379;DHT22;11357;49.990;7.370;2022-12-24T06:52:52;12.40;92.50
22379;DHT22;11357;49.990;7.370;2022-12-24T06:55:18;12.40;92.50
22379;DHT22;11357;49.990;7.370;2022-12-24T06:57:44;12.30;92.60
22379;DHT22;11357;49.990;7.370;2022-12-24T07:00:10;12.30;92.60
22379;DHT22;11357;49.990;7.370;2022-12-24T07:02:41;12.30;92.70
22379;DHT22;11357;49.990;7.370;2022-12-24T07:05:07;12.30;92.70
22379;DHT22;11357;49.990;7.370;2022-12-24T07:07:36;12.30;92.70
22379;DHT22;11357;49.990;7.370;2022-12-24T07:10:03;12.40;92.70
22379;DHT22;11357;49.990;7.370;2022-12-24T07:12:28;12.30;92.70
22379;DHT22;11357;49.990;7.370;2022-12-24T07:14:54;12.30;92.80
22379;DHT22;11357;49.990;7.370;2022-12-24T07:17:20;12.30;92.90
22379;DHT22;11357;49.990;7.370;2022-12-24T07:19:46;12.30;93.00
22379;DHT22;11357;49.990;7.370;2022-12-24T07:22:11;12.20;93.00
22379;DHT22;11357;49.990;7.370;2022-12-24T07:24:37;12.20;93.10
22379;DHT22;11357;49.990;7.370;2022-12-24T07:27:03;12.30;93.10
22379;DHT22;11357;49.990;7.370;2022-12-24T07:29:29;12.30;93.10
22379;DHT22;11357;49.990;7.370;2022-12-24T07:31:54;12.30;93.10
22379;DHT22;11357;49.990;7.370;2022-12-24T07:34:20;12.30;93.10
22379;DHT22;11357;49.990;7.370;2022-12-24T07:36:46;12.30;93.20
22379;DHT22;11357;49.990;7.370;2022-12-24T07:39:11;12.20;93.20
22379;DHT22;11357;49.990;7.370;2022-12-24T07:41:37;12.30;93.30
22379;DHT22;11357;49.990;7.370;2022-12-24T07:44:03;12.30;93.20
22379;DHT22;11357;49.990;7.370;2022-12-24T07:46:29;12.30;93.30
22379;DHT22;11357;49.990;7.370;2022-12-24T07:48:57;12.30;93.30
22379;DHT22;11357;49.990;7.370;2022-12-24T07:51:23;12.20;93.30
22379;DHT22;11357;49.990;7.370;2022-12-24T07:53:49;12.30;93.30
22379;DHT22;11357;49.990;7.370;2022-12-24T07:56:15;12.30;93.30
22379;DHT22;11357;49.990;7.370;2022-12-24T07:58:41;12.30;93.30
22379;DHT22;11357;49.990;7.370;2022-12-24T08:01:07;12.30;93.40
22379;DHT22;11357;49.990;7.370;2022-12-24T08:03:33;12.30;93.40
22379;DHT22;11357;49.990;7.370;2022-12-24T08:05:59;12.30;93.40
22379;DHT22;11357;49.990;7.370;2022-12-24T08:08:25;12.30;93.50
22379;DHT22;11357;49.990;7.370;2022-12-24T08:10:51;12.30;93.50
22379;DHT22;11357;49.990;7.370;2022-12-24T08:13:17;12.30;93.50
22379;DHT22;11357;49.990;7.370;2022-12-24T08:15:43;12.30;93.40
22379;DHT22;11357;49.990;7.370;2022-12-24T08:18:10;12.40;93.40
22379;DHT22;11357;49.990;7.370;2022-12-24T08:20:39;12.40;93.40
22379;DHT22;11357;49.990;7.370;2022-12-24T08:23:06;12.40;93.40
22379;DHT22;11357;49.990;7.370;2022-12-24T08:25:33;12.40;93.40
22379;DHT22;11357;49.990;7.370;2022-12-24T08:27:59;12.50;93.40
22379;DHT22;11357;49.990;7.370;2022-12-24T08:30:25;12.50;93.30
22379;DHT22;11357;49.990;7.370;2022-12-24T08:32:50;12.50;93.30
22379;DHT22;11357;49.990;7.370;2022-12-24T08:35:16;12.50;93.40
22379;DHT22;11357;49.990;7.370;2022-12-24T08:37:42;12.60;93.30
22379;DHT22;11357;49.990;7.370;2022-12-24T08:40:08;12.60;93.30
22379;DHT22;11357;49.990;7.370;2022-12-24T08:42:34;12.60;93.30
22379;DHT22;11357;49.990;7.370;2022-12-24T08:45:00;12.70;93.30
22379;DHT22;11357;49.990;7.370;2022-12-24T08:47:26;12.70;93.20
22379;DHT22;11357;49.990;7.370;2022-12-24T08:49:51;12.70;93.20
22379;DHT22;11357;49.990;7.370;2022-12-24T08:52:17;12.70;93.10
22379;DHT22;11357;49.990;7.370;2022-12-24T08:54:43;12.80;93.10
22379;DHT22;11357;49.990;7.370;2022-12-24T08:57:08;12.80;93.00
22379;DHT22;11357;49.990;7.370;2022-12-24T08:59:34;12.80;93.00
22379;DHT22;11357;49.990;7.370;2022-12-24T09:02:00;12.90;92.90
22379;DHT22;11357;49.990;7.370;2022-12-24T09:04:26;13.00;92.80
22379;DHT22;11357;49.990;7.370;2022-12-24T09:06:52;13.00;92.70
22379;DHT22;11357;49.990;7.370;2022-12-24T09:09:18;13.00;92.60
22379;DHT22;11357;49.990;7.370;2022-12-24T09:11:43;13.00;92.50
22379;DHT22;11357;49.990;7.370;2022-12-24T09:14:10;13.10;92.50
22379;DHT22;11357;49.990;7.370;2022-12-24T09:16:35;13.20;92.50
22379;DHT22;11357;49.990;7.370;2022-12-24T09:19:01;13.30;92.40
22379;DHT22;11357;49.990;7.370;2022-12-24T09:21:27;13.40;92.30
22379;DHT22;11357;49.990;7.370;2022-12-24T09:23:53;13.40;92.20
22379;DHT22;11357;49.990;7.370;2022-12-24T09:26:24;13.40;92.10
22379;DHT22;11357;49.990;7.370;2022-12-24T09:28:51;13.40;92.20
22379;DHT22;11357;49.990;7.370;2022-12-24T09:31:18;13.30;92.10
22379;DHT22;11357;49.990;7.370;2022-12-24T09:33:45;13.30;92.20
22379;DHT22;11357;49.990;7.370;2022-12-24T09:36:12;13.20;92.20
22379;DHT22;11357;49.990;7.370;2022-12-24T09:38:39;13.20;92.20
22379;DHT22;11357;49.990;7.370;2022-12-24T09:41:41;13.20;92.20
22379;DHT22;11357;49.990;7.370;2022-12-24T09:44:26;13.10;92.30
22379;DHT22;11357;49.990;7.370;2022-12-24T09:46:56;13.10;92.30
22379;DHT22;11357;49.990;7.370;2022-12-24T09:49:29;13.10;92.30
22379;DHT22;11357;49.990;7.370;2022-12-24T09:52:07;13.10;92.30
22379;DHT22;11357;49.990;7.370;2022-12-24T09:54:37;13.10;92.30
22379;DHT22;11357;49.990;7.370;2022-12-24T09:57:34;13.20;92.30
22379;DHT22;11357;49.990;7.370;2022-12-24T09:59:58;13.10;92.40
22379;DHT22;11357;49.990;7.370;2022-12-24T10:02:24;13.20;92.30
22379;DHT22;11357;49.990;7.370;2022-12-24T10:04:50;13.20;92.40
22379;DHT22;11357;49.990;7.370;2022-12-24T10:19:00;13.40;92.40
22379;DHT22;11357;49.990;7.370;2022-12-24T10:24:23;13.40;92.40
22379;DHT22;11357;49.990;7.370;2022-12-24T10:27:00;13.40;92.40
22379;DHT22;11357;49.990;7.370;2022-12-24T10:29:31;13.40;92.40
22379;DHT22;11357;49.990;7.370;2022-12-24T10:32:19;13.50;92.40
22379;DHT22;11357;49.990;7.370;2022-12-24T10:34:58;13.40;92.40
22379;DHT22;11357;49.990;7.370;2022-12-24T10:37:26;13.50;92.40
22379;DHT22;11357;49.990;7.370;2022-12-24T10:39:57;13.60;92.40
22379;DHT22;11357;49.990;7.370;2022-12-24T10:42:31;13.80;92.30
22379;DHT22;11357;49.990;7.370;2022-12-24T10:45:03;13.90;92.30
22379;DHT22;11357;49.990;7.370;2022-12-24T10:47:33;14.00;92.10
22379;DHT22;11357;49.990;7.370;2022-12-24T10:50:27;14.20;92.00
22379;DHT22;11357;49.990;7.370;2022-12-24T10:53:01;14.40;91.90
22379;DHT22;11357;49.990;7.370;2022-12-24T10:55:29;14.60;91.70
22379;DHT22;11357;49.990;7.370;2022-12-24T10:58:03;14.60;91.50
22379;DHT22;11357;49.990;7.370;2022-12-24T11:00:30;14.40;91.60
22379;DHT22;11357;49.990;7.370;2022-12-24T11:05:38;14.50;91.60
22379;DHT22;11357;49.990;7.370;2022-12-24T11:10:41;14.60;91.50
22379;DHT22;11357;49.990;7.370;2022-12-24T11:13:28;14.60;91.40
22379;DHT22;11357;49.990;7.370;2022-12-24T11:16:03;14.70;91.50
22379;DHT22;11357;49.990;7.370;2022-12-24T11:18:32;14.70;91.30
22379;DHT22;11357;49.990;7.370;2022-12-24T11:20:59;14.70;91.30
22379;DHT22;11357;49.990;7.370;2022-12-24T11:23:26;14.60;91.30
22379;DHT22;11357;49.990;7.370;2022-12-24T11:25:55;14.60;91.20
22379;DHT22;11357;49.990;7.370;2022-12-24T11:33:26;14.50;91.30
22379;DHT22;11357;49.990;7.370;2022-12-24T11:35:58;14.50;91.30
22379;DHT22;11357;49.990;7.370;2022-12-24T11:38:26;14.40;91.30
22379;DHT22;11357;49.990;7.370;2022-12-24T11:41:04;14.40;91.30
22379;DHT22;11357;49.990;7.370;2022-12-24T11:43:43;14.50;91.40
22379;DHT22;11357;49.990;7.370;2022-12-24T11:46:47;14.50;91.30
22379;DHT22;11357;49.990;7.370;2022-12-24T11:51:41;14.70;91.10
22379;DHT22;11357;49.990;7.370;2022-12-24T11:54:23;14.70;91.00
22379;DHT22;11357;49.990;7.370;2022-12-24T11:56:55;14.60;91.10
22379;DHT22;11357;49.990;7.370;2022-12-24T11:59:41;14.60;91.00
22379;DHT22;11357;49.990;7.370;2022-12-24T12:02:31;14.60;91.10
22379;DHT22;11357;49.990;7.370;2022-12-24T12:05:04;14.60;91.00
22379;DHT22;11357;49.990;7.370;2022-12-24T12:07:37;14.70;91.00
22379;DHT22;11357;49.990;7.370;2022-12-24T12:10:30;14.80;90.90
22379;DHT22;11357;49.990;7.370;2022-12-24T12:13:04;15.00;90.90
22379;DHT22;11357;49.990;7.370;2022-12-24T12:18:42;15.30;90.50
22379;DHT22;11357;49.990;7.370;2022-12-24T12:21:13;15.30;90.30
22379;DHT22;11357;49.990;7.370;2022-12-24T12:24:02;15.40;90.30
22379;DHT22;11357;49.990;7.370;2022-12-24T12:26:29;15.50;90.30
22379;DHT22;11357;49.990;7.370;2022-12-24T12:31:34;15.60;90.00
22379;DHT22;11357;49.990;7.370;2022-12-24T12:34:05;15.60;89.90
22379;DHT22;11357;49.990;7.370;2022-12-24T12:36:50;15.60;89.50
22379;DHT22;11357;49.990;7.370;2022-12-24T12:39:18;15.50;89.50
22379;DHT22;11357;49.990;7.370;2022-12-24T12:42:18;15.70;89.40
22379;DHT22;11357;49.990;7.370;2022-12-24T12:44:48;15.60;89.10
22379;DHT22;11357;49.990;7.370;2022-12-24T12:58:34;15.70;89.10
22379;DHT22;11357;49.990;7.370;2022-12-24T13:01:15;15.80;88.70
22379;DHT22;11357;49.990;7.370;2022-12-24T13:03:53;15.90;88.50
22379;DHT22;11357;49.990;7.370;2022-12-24T13:09:27;15.80;87.90
22379;DHT22;11357;49.990;7.370;2022-12-24T13:20:28;15.20;87.70
22379;DHT22;11357;49.990;7.370;2022-12-24T13:22:57;14.90;88.20
22379;DHT22;11357;49.990;7.370;2022-12-24T13:25:35;14.90;88.30
22379;DHT22;11357;49.990;7.370;2022-12-24T13:28:35;14.80;88.60
22379;DHT22;11357;49.990;7.370;2022-12-24T13:36:05;14.80;88.70
22379;DHT22;11357;49.990;7.370;2022-12-24T13:38:38;14.90;88.70
22379;DHT22;11357;49.990;7.370;2022-12-24T13:41:48;15.00;88.50
22379;DHT22;11357;49.990;7.370;2022-12-24T13:44:19;15.10;88.50
22379;DHT22;11357;49.990;7.370;2022-12-24T13:47:16;15.20;88.10
22379;DHT22;11357;49.990;7.370;2022-12-24T13:49:48;15.30;88.50
22379;DHT22;11357;49.990;7.370;2022-12-24T13:52:19;15.40;87.60
22379;DHT22;11357;49.990;7.370;2022-12-24T13:55:07;15.40;87.20
22379;DHT22;11357;49.990;7.370;2022-12-24T13:57:51;15.40;87.50
22379;DHT22;11357;49.990;7.370;2022-12-24T14:00:23;15.50;87.30
22379;DHT22;11357;49.990;7.370;2022-12-24T14:03:04;15.50;87.20
22379;DHT22;11357;49.990;7.370;2022-12-24T14:05:44;15.40;87.20
22379;DHT22;11357;49.990;7.370;2022-12-24T14:16:22;15.20;87.40
22379;DHT22;11357;49.990;7.370;2022-12-24T14:22:13;15.00;87.80
22379;DHT22;11357;49.990;7.370;2022-12-24T14:24:49;14.90;87.90
22379;DHT22;11357;49.990;7.370;2022-12-24T14:27:24;14.80;88.00
22379;DHT22;11357;49.990;7.370;2022-12-24T14:30:12;14.70;88.00
22379;DHT22;11357;49.990;7.370;2022-12-24T14:32:41;14.60;88.20
22379;DHT22;11357;49.990;7.370;2022-12-24T14:35:46;14.60;88.20
22379;DHT22;11357;49.990;7.370;2022-12-24T14:38:12;14.60;88.40
22379;DHT22;11357;49.990;7.370;2022-12-24T14:44:18;14.50;88.50
22379;DHT22;11357;49.990;7.370;2022-12-24T14:49:51;14.40;89.20
22379;DHT22;11357;49.990;7.370;2022-12-24T14:52:37;14.40;88.70
22379;DHT22;11357;49.990;7.370;2022-12-24T14:55:34;14.30;88.90
22379;DHT22;11357;49.990;7.370;2022-12-24T14:58:32;14.30;89.10
22379;DHT22;11357;49.990;7.370;2022-12-24T15:01:17;14.20;89.20
22379;DHT22;11357;49.990;7.370;2022-12-24T15:03:43;14.10;89.20
22379;DHT22;11357;49.990;7.370;2022-12-24T15:06:12;14.10;89.20
22379;DHT22;11357;49.990;7.370;2022-12-24T15:08:46;14.10;89.50
22379;DHT22;11357;49.990;7.370;2022-12-24T15:11:19;14.00;89.50
22379;DHT22;11357;49.990;7.370;2022-12-24T15:13:50;14.00;89.70
22379;DHT22;11357;49.990;7.370;2022-12-24T15:16:24;14.00;89.90
22379;DHT22;11357;49.990;7.370;2022-12-24T15:18:54;13.90;90.00
22379;DHT22;11357;49.990;7.370;2022-12-24T15:21:28;13.90;90.00
22379;DHT22;11357;49.990;7.370;2022-12-24T15:23:54;13.80;90.10
22379;DHT22;11357;49.990;7.370;2022-12-24T15:26:28;13.70;90.10
22379;DHT22;11357;49.990;7.370;2022-12-24T15:28:57;13.70;90.20
22379;DHT22;11357;49.990;7.370;2022-12-24T15:31:24;13.70;90.30
22379;DHT22;11357;49.990;7.370;2022-12-24T15:33:52;13.60;90.30
22379;DHT22;11357;49.990;7.370;2022-12-24T15:36:34;13.60;90.40
22379;DHT22;11357;49.990;7.370;2022-12-24T15:39:06;13.60;90.50
22379;DHT22;11357;49.990;7.370;2022-12-24T15:41:43;13.60;90.50
22379;DHT22;11357;49.990;7.370;2022-12-24T15:44:36;13.50;90.60
22379;DHT22;11357;49.990;7.370;2022-12-24T15:47:05;13.50;90.60
22379;DHT22;11357;49.990;7.370;2022-12-24T15:56:37;13.50;90.70
22379;DHT22;11357;49.990;7.370;2022-12-24T15:59:39;13.40;90.70
22379;DHT22;11357;49.990;7.370;2022-12-24T16:02:30;13.40;90.80
22379;DHT22;11357;49.990;7.370;2022-12-24T16:05:34;13.30;90.80
22379;DHT22;11357;49.990;7.370;2022-12-24T16:16:18;13.10;90.90
22379;DHT22;11357;49.990;7.370;2022-12-24T16:18:51;13.10;91.00
22379;DHT22;11357;49.990;7.370;2022-12-24T16:21:21;13.10;91.00
22379;DHT22;11357;49.990;7.370;2022-12-24T16:23:51;13.10;91.00
22379;DHT22;11357;49.990;7.370;2022-12-24T16:26:17;13.10;91.00
22379;DHT22;11357;49.990;7.370;2022-12-24T16:28:43;13.10;91.00
22379;DHT22;11357;49.990;7.370;2022-12-24T16:31:16;13.10;91.00
22379;DHT22;11357;49.990;7.370;2022-12-24T16:33:42;13.00;91.10
22379;DHT22;11357;49.990;7.370;2022-12-24T16:36:09;13.00;91.10
22379;DHT22;11357;49.990;7.370;2022-12-24T16:38:35;13.00;91.20
22379;DHT22;11357;49.990;7.370;2022-12-24T16:41:21;13.10;91.20
22379;DHT22;11357;49.990;7.370;2022-12-24T16:43:47;13.00;91.10
22379;DHT22;11357;49.990;7.370;2022-12-24T16:46:16;13.10;91.20
22379;DHT22;11357;49.990;7.370;2022-12-24T16:48:45;13.10;91.30
22379;DHT22;11357;49.990;7.370;2022-12-24T16:51:11;13.00;91.30
22379;DHT22;11357;49.990;7.370;2022-12-24T16:53:37;13.10;91.30
22379;DHT22;11357;49.990;7.370;2022-12-24T16:56:03;13.00;91.30
22379;DHT22;11357;49.990;7.370;2022-12-24T17:32:01;13.00;92.00
22379;DHT22;11357;49.990;7.370;2022-12-24T17:34:27;13.00;91.60
22379;DHT22;11357;49.990;7.370;2022-12-24T17:36:53;13.00;91.70
22379;DHT22;11357;49.990;7.370;2022-12-24T17:39:18;13.00;91.70
22379;DHT22;11357;49.990;7.370;2022-12-24T17:41:44;13.00;91.70
22379;DHT22;11357;49.990;7.370;2022-12-24T17:44:15;13.00;91.70
22379;DHT22;11357;49.990;7.370;2022-12-24T17:46:41;13.10;91.70
22379;DHT22;11357;49.990;7.370;2022-12-24T17:49:12;13.10;91.60
22379;DHT22;11357;49.990;7.370;2022-12-24T17:51:38;13.10;91.70
22379;DHT22;11357;49.990;7.370;2022-12-24T17:54:04;13.10;91.60
22379;DHT22;11357;49.990;7.370;2022-12-24T17:56:30;13.10;91.60
22379;DHT22;11357;49.990;7.370;2022-12-24T17:58:56;13.10;91.60
22379;DHT22;11357;49.990;7.370;2022-12-24T18:01:25;13.10;91.60
22379;DHT22;11357;49.990;7.370;2022-12-24T18:03:57;13.10;91.60
22379;DHT22;11357;49.990;7.370;2022-12-24T18:06:23;13.10;91.60
22379;DHT22;11357;49.990;7.370;2022-12-24T18:08:49;13.10;91.60
22379;DHT22;11357;49.990;7.370;2022-12-24T18:11:24;13.10;91.60
22379;DHT22;11357;49.990;7.370;2022-12-24T18:13:52;13.10;91.60
22379;DHT22;11357;49.990;7.370;2022-12-24T18:16:22;13.10;91.60
22379;DHT22;11357;49.990;7.370;2022-12-24T18:18:48;13.10;91.60
22379;DHT22;11357;49.990;7.370;2022-12-24T18:21:16;13.10;91.60
22379;DHT22;11357;49.990;7.370;2022-12-24T18:23:43;13.10;91.50